sensor_id;sensor_type;location;lat;lon;timestamp;pressure;altitude;pressure_sealevel;temperature;humidity
62697;BME280;48761;42.680;23.312;2023-03-31T00:00:29;94810.63;;;10.68;51.33
62697;BME280;48761;42.680;23.312;2023-03-31T00:02:56;94801.94;;;10.53;51.79
62697;BME280;48761;42.680;23.312;2023-03-31T00:05:22;94802.22;;;10.48;51.41
62697;BME280;48761;42.680;23.312;2023-03-31T00:07:52;94793.06;;;10.39;51.80
62697;BME280;48761;42.680;23.312;2023-03-31T00:10:18;94798.31;;;10.54;51.98
62697;BME280;48761;42.680;23.312;2023-03-31T00:12:44;94793.22;;;10.51;51.87
62697;BME280;48761;42.680;23.312;2023-03-31T00:15:10;94804.38;;;10.56;52.03
62697;BME280;48761;42.680;23.312;2023-03-31T00:17:36;94796.19;;;10.46;52.11
62697;BME280;48761;42.680;23.312;2023-03-31T00:20:03;94788.06;;;10.48;52.47
62697;BME280;48761;42.680;23.312;2023-03-31T00:22:29;94791.19;;;10.41;52.49
62697;BME280;48761;42.680;23.312;2023-03-31T00:24:54;94796.78;;;10.50;52.12
62697;BME280;48761;42.680;23.312;2023-03-31T00:27:20;94791.06;;;10.43;52.13
62697;BME280;48761;42.680;23.312;2023-03-31T00:29:46;94786.81;;;10.40;51.91
62697;BME280;48761;42.680;23.312;2023-03-31T00:32:12;94779.19;;;10.23;53.29
62697;BME280;48761;42.680;23.312;2023-03-31T00:34:38;94777.91;;;10.15;53.88
62697;BME280;48761;42.680;23.312;2023-03-31T00:37:04;94793.63;;;10.31;53.40
62697;BME280;48761;42.680;23.312;2023-03-31T00:39:30;94791.53;;;10.24;53.35
62697;BME280;48761;42.680;23.312;2023-03-31T00:41:57;94785.66;;;10.31;52.86
62697;BME280;48761;42.680;23.312;2023-03-31T00:44:24;94775.13;;;10.30;52.75
62697;BME280;48761;42.680;23.312;2023-03-31T00:49:46;94770.34;;;10.22;52.94
62697;BME280;48761;42.680;23.312;2023-03-31T00:52:16;94746.78;;;10.17;53.22
62697;BME280;48761;42.680;23.312;2023-03-31T00:54:45;94765.88;;;10.36;51.91
62697;BME280;48761;42.680;23.312;2023-03-31T00:57:13;94766.63;;;9.98;54.15
62697;BME280;48761;42.680;23.312;2023-03-31T00:59:47;94768.34;;;10.00;54.39
62697;BME280;48761;42.680;23.312;2023-03-31T01:02:15;94750.94;;;10.08;54.10
62697;BME280;48761;42.680;23.312;2023-03-31T01:04:47;94757.72;;;10.00;53.52
62697;BME280;48761;42.680;23.312;2023-03-31T01:07:25;94761.56;;;9.95;53.70
62697;BME280;48761;42.680;23.312;2023-03-31T01:09:56;94759.63;;;9.84;54.65
62697;BME280;48761;42.680;23.312;2023-03-31T01:12:23;94754.13;;;10.01;54.87
62697;BME280;48761;42.680;23.312;2023-03-31T01:14:49;94742.66;;;9.87;54.24
62697;BME280;48761;42.680;23.312;2023-03-31T01:17:17;94757.84;;;9.85;53.79
62697;BME280;48761;42.680;23.312;2023-03-31T01:34:48;94769.75;;;10.18;52.84
62697;BME280;48761;42.680;23.312;2023-03-31T01:43:23;94771.53;;;9.92;52.57
62697;BME280;48761;42.680;23.312;2023-03-31T01:49:50;94777.91;;;10.15;52.54
62697;BME280;48761;42.680;23.312;2023-03-31T01:52:24;94789.81;;;10.36;52.96
62697;BME280;48761;42.680;23.312;2023-03-31T01:55:05;94775.59;;;9.97;53.38
62697;BME280;48761;42.680;23.312;2023-03-31T01:57:38;94788.09;;;10.22;53.70
62697;BME280;48761;42.680;23.312;2023-03-31T02:03:04;94789.59;;;10.39;52.27
62697;BME280;48761;42.680;23.312;2023-03-31T02:05:35;94792.34;;;10.37;52.86
62697;BME280;48761;42.680;23.312;2023-03-31T02:08:13;94800.09;;;10.40;52.88
62697;BME280;48761;42.680;23.312;2023-03-31T02:10:41;94766.03;;;10.21;52.51
62697;BME280;48761;42.680;23.312;2023-03-31T02:13:10;94787.69;;;10.41;52.23
62697;BME280;48761;42.680;23.312;2023-03-31T02:15:41;94788.09;;;10.22;52.73
62697;BME280;48761;42.680;23.312;2023-03-31T02:18:10;94806.16;;;10.29;53.45
62697;BME280;48761;42.680;23.312;2023-03-31T02:20:41;94810.13;;;10.24;53.89
62697;BME280;48761;42.680;23.312;2023-03-31T02:23:11;94821.13;;;9.91;55.50
62697;BME280;48761;42.680;23.312;2023-03-31T02:25:46;94820.41;;;10.15;54.91
62697;BME280;48761;42.680;23.312;2023-03-31T02:28:18;94796.69;;;9.86;55.47
62697;BME280;48761;42.680;23.312;2023-03-31T02:33:23;94822.09;;;10.29;56.73
62697;BME280;48761;42.680;23.312;2023-03-31T02:35:49;94834.66;;;10.40;57.31
62697;BME280;48761;42.680;23.312;2023-03-31T02:38:16;94827.00;;;10.23;60.08
62697;BME280;48761;42.680;23.312;2023-03-31T02:40:42;94832.06;;;9.86;61.35
62697;BME280;48761;42.680;23.312;2023-03-31T02:43:08;94834.41;;;9.91;61.74
62697;BME280;48761;42.680;23.312;2023-03-31T02:45:46;94827.84;;;9.97;61.87
62697;BME280;48761;42.680;23.312;2023-03-31T02:48:23;94838.69;;;10.07;62.28
62697;BME280;48761;42.680;23.312;2023-03-31T03:12:24;94790.47;;;10.26;61.24
62697;BME280;48761;42.680;23.312;2023-03-31T03:15:00;94759.97;;;10.06;61.11
62697;BME280;48761;42.680;23.312;2023-03-31T03:17:44;94767.50;;;10.12;61.14
62697;BME280;48761;42.680;23.312;2023-03-31T03:20:12;94769.28;;;10.25;60.64
62697;BME280;48761;42.680;23.312;2023-03-31T03:22:39;94763.25;;;10.23;60.51
62697;BME280;48761;42.680;23.312;2023-03-31T03:25:10;94766.22;;;10.31;60.83
62697;BME280;48761;42.680;23.312;2023-03-31T03:27:37;94769.09;;;10.28;61.32
62697;BME280;48761;42.680;23.312;2023-03-31T03:30:06;94768.44;;;10.24;61.68
62697;BME280;48761;42.680;23.312;2023-03-31T03:32:32;94722.47;;;9.97;61.41
62697;BME280;48761;42.680;23.312;2023-03-31T03:35:02;94758.13;;;10.32;60.99
62697;BME280;48761;42.680;23.312;2023-03-31T03:37:29;94745.56;;;10.35;61.05
62697;BME280;48761;42.680;23.312;2023-03-31T03:39:55;94758.88;;;10.35;60.75
62697;BME280;48761;42.680;23.312;2023-03-31T03:42:21;94758.97;;;10.33;61.34
62697;BME280;48761;42.680;23.312;2023-03-31T03:44:47;94751.63;;;10.37;61.24
62697;BME280;48761;42.680;23.312;2023-03-31T03:47:13;94746.22;;;10.38;62.94
62697;BME280;48761;42.680;23.312;2023-03-31T03:49:39;94733.94;;;10.11;65.23
62697;BME280;48761;42.680;23.312;2023-03-31T03:52:05;94730.75;;;10.06;65.17
62697;BME280;48761;42.680;23.312;2023-03-31T03:54:31;94711.84;;;9.45;67.48
62697;BME280;48761;42.680;23.312;2023-03-31T03:56:57;94746.66;;;9.53;68.01
62697;BME280;48761;42.680;23.312;2023-03-31T03:59:23;94740.94;;;9.60;66.95
62697;BME280;48761;42.680;23.312;2023-03-31T04:01:49;94738.59;;;9.68;66.83
62697;BME280;48761;42.680;23.312;2023-03-31T04:04:15;94755.81;;;9.75;66.12
62697;BME280;48761;42.680;23.312;2023-03-31T04:06:41;94749.00;;;9.71;66.00
62697;BME280;48761;42.680;23.312;2023-03-31T04:09:07;94755.94;;;9.87;65.83
62697;BME280;48761;42.680;23.312;2023-03-31T04:11:33;94744.38;;;9.88;65.96
62697;BME280;48761;42.680;23.312;2023-03-31T04:13:59;94761.34;;;9.72;66.70
62697;BME280;48761;42.680;23.312;2023-03-31T04:16:30;94767.50;;;9.73;66.50
62697;BME280;48761;42.680;23.312;2023-03-31T04:18:55;94750.72;;;9.85;66.43
62697;BME280;48761;42.680;23.312;2023-03-31T04:21:22;94768.47;;;10.11;66.55
62697;BME280;48761;42.680;23.312;2023-03-31T04:23:53;94772.16;;;10.22;66.34
62697;BME280;48761;42.680;23.312;2023-03-31T04:26:19;94765.69;;;10.13;66.35
62697;BME280;48761;42.680;23.312;2023-03-31T04:28:45;94763.91;;;10.13;66.54
62697;BME280;48761;42.680;23.312;2023-03-31T04:31:12;94764.31;;;10.07;66.36
62697;BME280;48761;42.680;23.312;2023-03-31T04:33:39;94761.22;;;9.74;66.71
62697;BME280;48761;42.680;23.312;2023-03-31T04:36:05;94763.44;;;9.67;66.93
62697;BME280;48761;42.680;23.312;2023-03-31T04:38:31;94752.19;;;9.77;67.45
62697;BME280;48761;42.680;23.312;2023-03-31T04:40:58;94749.75;;;9.73;67.00
62697;BME280;48761;42.680;23.312;2023-03-31T04:43:24;94743.69;;;9.71;66.82
62697;BME280;48761;42.680;23.312;2023-03-31T04:45:50;94737.97;;;9.78;68.00
62697;BME280;48761;42.680;23.312;2023-03-31T04:48:16;94744.56;;;9.85;68.29
62697;BME280;48761;42.680;23.312;2023-03-31T04:50:42;94748.59;;;10.04;67.81
62697;BME280;48761;42.680;23.312;2023-03-31T04:53:08;94735.63;;;10.12;67.53
62697;BME280;48761;42.680;23.312;2023-03-31T04:55:34;94735.41;;;10.15;67.62
62697;BME280;48761;42.680;23.312;2023-03-31T04:58:00;94733.06;;;10.24;66.67
62697;BME280;48761;42.680;23.312;2023-03-31T05:00:26;94733.16;;;10.35;65.40
62697;BME280;48761;42.680;23.312;2023-03-31T05:02:52;94731.81;;;10.03;65.71
62697;BME280;48761;42.680;23.312;2023-03-31T05:05:18;94690.41;;;9.74;66.29
62697;BME280;48761;42.680;23.312;2023-03-31T05:07:44;94722.66;;;9.68;67.57
62697;BME280;48761;42.680;23.312;2023-03-31T05:10:10;94725.41;;;9.53;67.87
62697;BME280;48761;42.680;23.312;2023-03-31T05:12:36;94726.94;;;9.58;67.95
62697;BME280;48761;42.680;23.312;2023-03-31T05:15:03;94730.28;;;9.34;69.37
62697;BME280;48761;42.680;23.312;2023-03-31T05:17:34;94721.97;;;9.25;69.73
62697;BME280;48761;42.680;23.312;2023-03-31T05:20:00;94716.00;;;9.08;70.41
62697;BME280;48761;42.680;23.312;2023-03-31T05:22:26;94714.19;;;8.96;70.66
62697;BME280;48761;42.680;23.312;2023-03-31T05:24:52;94707.06;;;8.96;70.85
62697;BME280;48761;42.680;23.312;2023-03-31T05:27:18;94714.56;;;9.17;69.95
62697;BME280;48761;42.680;23.312;2023-03-31T05:29:44;94719.59;;;9.35;70.20
62697;BME280;48761;42.680;23.312;2023-03-31T05:32:10;94701.63;;;9.26;70.57
62697;BME280;48761;42.680;23.312;2023-03-31T05:34:36;94717.50;;;9.13;71.26
62697;BME280;48761;42.680;23.312;2023-03-31T05:37:02;94703.22;;;8.88;72.62
62697;BME280;48761;42.680;23.312;2023-03-31T05:39:28;94706.16;;;8.83;73.77
62697;BME280;48761;42.680;23.312;2023-03-31T05:41:54;94712.34;;;8.83;73.70
62697;BME280;48761;42.680;23.312;2023-03-31T05:44:20;94709.38;;;8.88;73.75
62697;BME280;48761;42.680;23.312;2023-03-31T05:46:45;94713.00;;;9.00;73.68
62697;BME280;48761;42.680;23.312;2023-03-31T05:49:11;94708.78;;;9.11;72.90
62697;BME280;48761;42.680;23.312;2023-03-31T05:51:37;94692.03;;;8.97;73.16
62697;BME280;48761;42.680;23.312;2023-03-31T05:54:03;94713.72;;;9.17;73.20
62697;BME280;48761;42.680;23.312;2023-03-31T05:56:29;94713.75;;;9.30;72.89
62697;BME280;48761;42.680;23.312;2023-03-31T05:58:55;94716.16;;;9.33;72.91
62697;BME280;48761;42.680;23.312;2023-03-31T06:01:21;94707.91;;;9.38;72.44
62697;BME280;48761;42.680;23.312;2023-03-31T06:03:47;94713.53;;;9.46;72.40
62697;BME280;48761;42.680;23.312;2023-03-31T06:06:13;94716.09;;;9.61;71.57
62697;BME280;48761;42.680;23.312;2023-03-31T06:08:40;94712.50;;;9.62;70.79
62697;BME280;48761;42.680;23.312;2023-03-31T06:11:07;94710.56;;;9.38;70.92
62697;BME280;48761;42.680;23.312;2023-03-31T06:13:34;94723.94;;;9.49;71.10
62697;BME280;48761;42.680;23.312;2023-03-31T06:16:01;94720.34;;;9.50;70.92
62697;BME280;48761;42.680;23.312;2023-03-31T06:18:28;94714.69;;;9.29;71.13
62697;BME280;48761;42.680;23.312;2023-03-31T06:20:55;94705.25;;;9.38;71.33
62697;BME280;48761;42.680;23.312;2023-03-31T06:23:22;94708.03;;;9.49;69.96
62697;BME280;48761;42.680;23.312;2023-03-31T06:25:48;94711.66;;;9.88;69.30
62697;BME280;48761;42.680;23.312;2023-03-31T06:28:14;94697.59;;;10.12;67.55
62697;BME280;48761;42.680;23.312;2023-03-31T06:30:40;94705.91;;;10.45;66.64
62697;BME280;48761;42.680;23.312;2023-03-31T06:33:06;94711.47;;;10.79;65.13
62697;BME280;48761;42.680;23.312;2023-03-31T06:35:32;94694.78;;;11.02;62.04
62697;BME280;48761;42.680;23.312;2023-03-31T06:37:58;94694.47;;;11.18;61.29
62697;BME280;48761;42.680;23.312;2023-03-31T06:40:24;94708.78;;;11.28;61.89
62697;BME280;48761;42.680;23.312;2023-03-31T06:42:50;94709.34;;;11.57;59.85
62697;BME280;48761;42.680;23.312;2023-03-31T06:45:16;94708.31;;;11.82;60.74
62697;BME280;48761;42.680;23.312;2023-03-31T06:47:42;94716.66;;;11.89;61.40
62697;BME280;48761;42.680;23.312;2023-03-31T06:50:09;94704.66;;;11.83;57.87
62697;BME280;48761;42.680;23.312;2023-03-31T06:52:35;94707.69;;;12.02;57.11
62697;BME280;48761;42.680;23.312;2023-03-31T06:55:01;94713.28;;;12.10;54.41
62697;BME280;48761;42.680;23.312;2023-03-31T06:57:28;94705.75;;;12.04;53.57
62697;BME280;48761;42.680;23.312;2023-03-31T06:59:54;94685.19;;;11.94;53.04
62697;BME280;48761;42.680;23.312;2023-03-31T07:02:20;94709.69;;;12.23;52.34
62697;BME280;48761;42.680;23.312;2023-03-31T07:04:46;94698.16;;;12.22;52.93
62697;BME280;48761;42.680;23.312;2023-03-31T07:07:12;94684.59;;;12.37;52.79
62697;BME280;48761;42.680;23.312;2023-03-31T07:09:38;94684.78;;;12.57;52.73
62697;BME280;48761;42.680;23.312;2023-03-31T07:12:03;94667.47;;;12.62;52.19
62697;BME280;48761;42.680;23.312;2023-03-31T07:14:30;94664.31;;;13.02;50.76
62697;BME280;48761;42.680;23.312;2023-03-31T07:16:57;94642.41;;;13.41;49.69
62697;BME280;48761;42.680;23.312;2023-03-31T07:19:23;94663.47;;;14.18;49.35
62697;BME280;48761;42.680;23.312;2023-03-31T07:21:51;94627.78;;;14.29;47.49
62697;BME280;48761;42.680;23.312;2023-03-31T07:24:18;94621.53;;;14.80;47.53
62697;BME280;48761;42.680;23.312;2023-03-31T07:26:44;94626.19;;;14.78;46.69
62697;BME280;48761;42.680;23.312;2023-03-31T07:29:09;94638.34;;;15.32;46.57
62697;BME280;48761;42.680;23.312;2023-03-31T07:31:35;94606.50;;;15.19;47.15
62697;BME280;48761;42.680;23.312;2023-03-31T07:34:02;94653.81;;;15.48;46.58
62697;BME280;48761;42.680;23.312;2023-03-31T07:36:29;94652.94;;;15.57;45.33
62697;BME280;48761;42.680;23.312;2023-03-31T07:38:56;94658.41;;;15.76;45.04
62697;BME280;48761;42.680;23.312;2023-03-31T07:41:22;94654.31;;;15.82;45.51
62697;BME280;48761;42.680;23.312;2023-03-31T07:43:49;94643.78;;;15.60;44.93
62697;BME280;48761;42.680;23.312;2023-03-31T07:46:24;94647.25;;;15.80;44.67
62697;BME280;48761;42.680;23.312;2023-03-31T07:48:51;94650.16;;;15.49;44.42
62697;BME280;48761;42.680;23.312;2023-03-31T07:51:20;94639.28;;;15.51;44.50
62697;BME280;48761;42.680;23.312;2023-03-31T07:53:47;94642.28;;;16.06;44.94
62697;BME280;48761;42.680;23.312;2023-03-31T07:56:14;94647.00;;;16.97;43.01
62697;BME280;48761;42.680;23.312;2023-03-31T07:58:40;94642.47;;;16.97;42.07
62697;BME280;48761;42.680;23.312;2023-03-31T08:01:06;94610.13;;;16.34;42.41
62697;BME280;48761;42.680;23.312;2023-03-31T08:03:32;94603.94;;;16.52;41.47
62697;BME280;48761;42.680;23.312;2023-03-31T08:05:58;94638.16;;;16.86;41.31
62697;BME280;48761;42.680;23.312;2023-03-31T08:08:23;94626.44;;;16.87;40.50
62697;BME280;48761;42.680;23.312;2023-03-31T08:10:49;94628.16;;;17.25;40.78
62697;BME280;48761;42.680;23.312;2023-03-31T08:13:15;94634.25;;;16.62;41.45
62697;BME280;48761;42.680;23.312;2023-03-31T08:15:41;94623.34;;;16.17;42.22
62697;BME280;48761;42.680;23.312;2023-03-31T08:18:07;94621.88;;;15.85;42.82
62697;BME280;48761;42.680;23.312;2023-03-31T08:20:33;94584.81;;;15.12;43.46
62697;BME280;48761;42.680;23.312;2023-03-31T08:22:59;94620.59;;;15.01;44.19
62697;BME280;48761;42.680;23.312;2023-03-31T08:25:25;94619.72;;;15.30;44.29
62697;BME280;48761;42.680;23.312;2023-03-31T08:27:51;94615.13;;;15.71;42.67
62697;BME280;48761;42.680;23.312;2023-03-31T08:30:18;94623.69;;;16.32;41.73
62697;BME280;48761;42.680;23.312;2023-03-31T08:32:44;94627.38;;;16.78;40.94
62697;BME280;48761;42.680;23.312;2023-03-31T08:35:12;94603.34;;;16.58;41.18
62697;BME280;48761;42.680;23.312;2023-03-31T08:37:38;94611.25;;;17.14;40.00
62697;BME280;48761;42.680;23.312;2023-03-31T08:40:05;94610.81;;;17.01;39.82
62697;BME280;48761;42.680;23.312;2023-03-31T08:42:42;94616.09;;;17.29;40.40
62697;BME280;48761;42.680;23.312;2023-03-31T08:47:48;94591.34;;;17.17;39.49
62697;BME280;48761;42.680;23.312;2023-03-31T08:50:19;94625.66;;;17.50;39.75
62697;BME280;48761;42.680;23.312;2023-03-31T08:53:01;94591.94;;;17.83;39.40
62697;BME280;48761;42.680;23.312;2023-03-31T08:55:47;94587.22;;;17.76;39.12
62697;BME280;48761;42.680;23.312;2023-03-31T08:58:40;94562.22;;;17.57;38.87
62697;BME280;48761;42.680;23.312;2023-03-31T09:01:19;94605.72;;;17.79;38.51
62697;BME280;48761;42.680;23.312;2023-03-31T09:04:04;94601.78;;;17.20;39.35
62697;BME280;48761;42.680;23.312;2023-03-31T09:06:37;94578.13;;;17.06;39.29
62697;BME280;48761;42.680;23.312;2023-03-31T09:09:09;94568.88;;;17.18;39.22
62697;BME280;48761;42.680;23.312;2023-03-31T09:11:47;94584.16;;;17.71;38.82
62697;BME280;48761;42.680;23.312;2023-03-31T09:17:04;94577.75;;;18.34;37.82
62697;BME280;48761;42.680;23.312;2023-03-31T09:19:38;94556.09;;;18.09;37.28
62697;BME280;48761;42.680;23.312;2023-03-31T09:22:18;94582.16;;;17.46;38.08
62697;BME280;48761;42.680;23.312;2023-03-31T09:24:51;94580.34;;;17.29;38.80
62697;BME280;48761;42.680;23.312;2023-03-31T09:27:19;94582.81;;;17.75;37.91
62697;BME280;48761;42.680;23.312;2023-03-31T09:29:54;94550.84;;;17.37;38.11
62697;BME280;48761;42.680;23.312;2023-03-31T09:32:24;94577.78;;;17.45;38.75
62697;BME280;48761;42.680;23.312;2023-03-31T09:34:56;94562.50;;;17.46;38.40
62697;BME280;48761;42.680;23.312;2023-03-31T09:37:27;94560.41;;;17.13;38.30
62697;BME280;48761;42.680;23.312;2023-03-31T09:39:59;94575.38;;;17.16;38.96
62697;BME280;48761;42.680;23.312;2023-03-31T09:42:25;94577.66;;;16.74;39.30
62697;BME280;48761;42.680;23.312;2023-03-31T09:44:51;94558.09;;;16.81;39.36
62697;BME280;48761;42.680;23.312;2023-03-31T09:49:44;94549.84;;;16.93;38.99
62697;BME280;48761;42.680;23.312;2023-03-31T09:54:58;94544.53;;;17.20;39.09
62697;BME280;48761;42.680;23.312;2023-03-31T09:57:30;94536.56;;;17.63;38.20
62697;BME280;48761;42.680;23.312;2023-03-31T10:00:14;94555.81;;;17.77;37.86
62697;BME280;48761;42.680;23.312;2023-03-31T10:03:11;94552.09;;;17.78;38.09
62697;BME280;48761;42.680;23.312;2023-03-31T10:05:49;94534.50;;;17.57;37.92
62697;BME280;48761;42.680;23.312;2023-03-31T10:10:48;94524.94;;;17.54;38.21
62697;BME280;48761;42.680;23.312;2023-03-31T10:19:17;94533.72;;;17.11;38.34
62697;BME280;48761;42.680;23.312;2023-03-31T10:21:54;94512.00;;;16.86;38.78
62697;BME280;48761;42.680;23.312;2023-03-31T10:24:20;94533.28;;;17.16;38.67
62697;BME280;48761;42.680;23.312;2023-03-31T10:26:48;94530.41;;;17.18;38.69
62697;BME280;48761;42.680;23.312;2023-03-31T10:29:21;94516.00;;;17.19;38.78
62697;BME280;48761;42.680;23.312;2023-03-31T10:31:48;94516.50;;;17.22;38.70
62697;BME280;48761;42.680;23.312;2023-03-31T10:34:15;94520.34;;;17.20;38.94
62697;BME280;48761;42.680;23.312;2023-03-31T10:36:45;94510.84;;;17.07;39.25
62697;BME280;48761;42.680;23.312;2023-03-31T10:39:15;94500.88;;;16.99;39.33
62697;BME280;48761;42.680;23.312;2023-03-31T10:41:41;94486.97;;;17.04;38.91
62697;BME280;48761;42.680;23.312;2023-03-31T10:44:37;94480.91;;;16.94;39.28
62697;BME280;48761;42.680;23.312;2023-03-31T10:49:40;94506.72;;;16.76;40.27
62697;BME280;48761;42.680;23.312;2023-03-31T10:52:20;94500.16;;;16.71;40.74
62697;BME280;48761;42.680;23.312;2023-03-31T10:54:54;94486.97;;;16.59;41.73
62697;BME280;48761;42.680;23.312;2023-03-31T10:57:24;94500.63;;;16.66;41.97
62697;BME280;48761;42.680;23.312;2023-03-31T11:00:17;94490.34;;;16.61;41.26
62697;BME280;48761;42.680;23.312;2023-03-31T11:05:49;94494.63;;;16.54;41.00
62697;BME280;48761;42.680;23.312;2023-03-31T11:08:31;94484.28;;;16.59;40.82
62697;BME280;48761;42.680;23.312;2023-03-31T11:11:16;94487.28;;;16.56;40.13
62697;BME280;48761;42.680;23.312;2023-03-31T11:14:03;94480.41;;;16.35;40.37
62697;BME280;48761;42.680;23.312;2023-03-31T11:16:38;94464.59;;;16.32;40.46
62697;BME280;48761;42.680;23.312;2023-03-31T11:27:30;94459.91;;;16.71;40.33
62697;BME280;48761;42.680;23.312;2023-03-31T11:36:09;94447.19;;;16.73;40.41
62697;BME280;48761;42.680;23.312;2023-03-31T11:41:07;94416.28;;;16.68;40.59
62697;BME280;48761;42.680;23.312;2023-03-31T11:44:08;94437.56;;;16.88;40.69
62697;BME280;48761;42.680;23.312;2023-03-31T11:49:30;94434.25;;;16.95;40.66
62697;BME280;48761;42.680;23.312;2023-03-31T11:52:14;94438.25;;;16.90;40.34
62697;BME280;48761;42.680;23.312;2023-03-31T11:54:55;94422.38;;;16.79;40.67
62697;BME280;48761;42.680;23.312;2023-03-31T11:57:24;94415.19;;;16.79;40.79
62697;BME280;48761;42.680;23.312;2023-03-31T12:05:29;94372.19;;;16.44;40.80
62697;BME280;48761;42.680;23.312;2023-03-31T12:10:37;94387.09;;;16.65;40.79
62697;BME280;48761;42.680;23.312;2023-03-31T12:19:14;94402.78;;;17.05;40.42
62697;BME280;48761;42.680;23.312;2023-03-31T12:21:47;94397.09;;;17.08;40.21
62697;BME280;48761;42.680;23.312;2023-03-31T12:24:20;94368.94;;;16.59;40.14
62697;BME280;48761;42.680;23.312;2023-03-31T12:27:04;94390.78;;;16.91;40.41
62697;BME280;48761;42.680;23.312;2023-03-31T12:30:19;94331.28;;;16.42;40.42
62697;BME280;48761;42.680;23.312;2023-03-31T12:32:40;94383.84;;;16.80;40.59
62697;BME280;48761;42.680;23.312;2023-03-31T12:41:41;94387.50;;;16.79;40.81
62697;BME280;48761;42.680;23.312;2023-03-31T12:44:32;94376.53;;;16.99;40.36
62697;BME280;48761;42.680;23.312;2023-03-31T12:47:09;94373.28;;;17.13;40.08
62697;BME280;48761;42.680;23.312;2023-03-31T13:14:00;94295.13;;;18.02;38.99
62697;BME280;48761;42.680;23.312;2023-03-31T13:16:32;94292.25;;;18.12;38.61
62697;BME280;48761;42.680;23.312;2023-03-31T13:18:58;94282.34;;;18.21;38.50
62697;BME280;48761;42.680;23.312;2023-03-31T13:21:25;94267.22;;;18.11;38.69
62697;BME280;48761;42.680;23.312;2023-03-31T13:23:52;94261.34;;;18.24;38.02
62697;BME280;48761;42.680;23.312;2023-03-31T13:26:44;94259.97;;;17.95;38.24
62697;BME280;48761;42.680;23.312;2023-03-31T13:34:32;94226.69;;;17.38;39.42
62697;BME280;48761;42.680;23.312;2023-03-31T13:37:06;94231.22;;;17.29;39.57
62697;BME280;48761;42.680;23.312;2023-03-31T13:39:41;94225.66;;;17.22;39.64
62697;BME280;48761;42.680;23.312;2023-03-31T13:42:40;94214.63;;;17.42;39.79
62697;BME280;48761;42.680;23.312;2023-03-31T13:48:41;94209.59;;;17.55;39.31
62697;BME280;48761;42.680;23.312;2023-03-31T14:10:35;94190.94;;;17.70;40.04
62697;BME280;48761;42.680;23.312;2023-03-31T14:13:14;94191.78;;;17.79;39.50
62697;BME280;48761;42.680;23.312;2023-03-31T14:18:14;94185.56;;;17.70;39.35
62697;BME280;48761;42.680;23.312;2023-03-31T14:28:49;94175.50;;;17.64;39.56
62697;BME280;48761;42.680;23.312;2023-03-31T14:31:30;94169.47;;;17.54;39.40
62697;BME280;48761;42.680;23.312;2023-03-31T14:34:18;94161.56;;;17.61;39.50
62697;BME280;48761;42.680;23.312;2023-03-31T14:37:00;94160.91;;;17.58;39.59
62697;BME280;48761;42.680;23.312;2023-03-31T14:39:30;94164.41;;;17.51;39.49
62697;BME280;48761;42.680;23.312;2023-03-31T14:42:18;94161.06;;;17.48;39.44
62697;BME280;48761;42.680;23.312;2023-03-31T14:44:45;94154.16;;;17.38;39.63
62697;BME280;48761;42.680;23.312;2023-03-31T14:47:23;94147.97;;;17.54;39.45
62697;BME280;48761;42.680;23.312;2023-03-31T14:50:12;94145.94;;;17.64;39.47
62697;BME280;48761;42.680;23.312;2023-03-31T14:52:39;94142.22;;;17.57;39.47
62697;BME280;48761;42.680;23.312;2023-03-31T14:55:16;94132.03;;;17.44;39.45
62697;BME280;48761;42.680;23.312;2023-03-31T14:57:45;94138.38;;;17.43;39.43
62697;BME280;48761;42.680;23.312;2023-03-31T15:00:16;94141.09;;;17.26;40.06
62697;BME280;48761;42.680;23.312;2023-03-31T15:02:45;94137.72;;;17.24;40.14
62697;BME280;48761;42.680;23.312;2023-03-31T15:05:23;94132.34;;;17.16;40.46
62697;BME280;48761;42.680;23.312;2023-03-31T15:07:50;94133.81;;;17.10;40.56
62697;BME280;48761;42.680;23.312;2023-03-31T15:10:19;94139.38;;;17.17;40.93
62697;BME280;48761;42.680;23.312;2023-03-31T15:12:47;94130.66;;;17.23;40.25
62697;BME280;48761;42.680;23.312;2023-03-31T15:15:14;94140.19;;;17.09;40.51
62697;BME280;48761;42.680;23.312;2023-03-31T15:17:42;94134.97;;;16.90;40.92
62697;BME280;48761;42.680;23.312;2023-03-31T15:20:25;94133.28;;;16.81;41.23
62697;BME280;48761;42.680;23.312;2023-03-31T15:22:51;94122.16;;;16.67;41.35
62697;BME280;48761;42.680;23.312;2023-03-31T15:25:17;94122.47;;;16.64;41.31
62697;BME280;48761;42.680;23.312;2023-03-31T15:27:56;94132.50;;;16.54;41.66
62697;BME280;48761;42.680;23.312;2023-03-31T15:30:24;94135.03;;;16.64;41.54
62697;BME280;48761;42.680;23.312;2023-03-31T15:32:51;94125.13;;;16.56;41.64
62697;BME280;48761;42.680;23.312;2023-03-31T15:35:30;94129.81;;;16.54;41.63
62697;BME280;48761;42.680;23.312;2023-03-31T15:37:58;94126.97;;;16.47;41.63
62697;BME280;48761;42.680;23.312;2023-03-31T15:40:28;94123.78;;;16.52;41.63
62697;BME280;48761;42.680;23.312;2023-03-31T15:43:30;94127.81;;;16.56;41.56
62697;BME280;48761;42.680;23.312;2023-03-31T15:46:00;94132.84;;;16.51;41.51
62697;BME280;48761;42.680;23.312;2023-03-31T15:50:58;94124.66;;;16.61;41.74
62697;BME280;48761;42.680;23.312;2023-03-31T15:55:53;94119.75;;;16.56;41.76
62697;BME280;48761;42.680;23.312;2023-03-31T15:58:23;94098.25;;;16.39;41.92
62697;BME280;48761;42.680;23.312;2023-03-31T16:01:02;94117.25;;;16.54;41.65
62697;BME280;48761;42.680;23.312;2023-03-31T16:03:34;94119.44;;;16.59;41.39
62697;BME280;48761;42.680;23.312;2023-03-31T16:06:05;94122.13;;;16.51;41.70
62697;BME280;48761;42.680;23.312;2023-03-31T16:08:40;94115.38;;;16.46;42.00
62697;BME280;48761;42.680;23.312;2023-03-31T16:11:14;94109.53;;;16.43;41.98
62697;BME280;48761;42.680;23.312;2023-03-31T16:13:45;94117.41;;;16.44;42.05
62697;BME280;48761;42.680;23.312;2023-03-31T16:16:16;94120.88;;;16.36;42.15